createdAt,value
2022-11-03T00:04:27.504Z,29.60
2022-11-03T00:06:54.967Z,26.30
2022-11-03T00:09:22.869Z,30.60
2022-11-03T00:11:50.902Z,28.00
2022-11-03T00:14:18.402Z,27.60
2022-11-03T00:16:45.925Z,27.70
2022-11-03T00:19:15.596Z,25.90
2022-11-03T00:21:42.679Z,27.50
2022-11-03T00:24:09.419Z,27.50
2022-11-03T00:26:36.776Z,31.20
2022-11-03T00:29:09.151Z,28.00
2022-11-03T00:31:36.967Z,29.80
2022-11-03T00:34:05.090Z,33.60
2022-11-03T00:36:34.494Z,26.90
2022-11-03T00:39:01.847Z,24.60
2022-11-03T00:41:28.308Z,27.30
2022-11-03T00:46:22.378Z,26.30
2022-11-03T00:48:48.800Z,26.00
2022-11-03T00:51:16.707Z,25.70
2022-11-03T00:53:47.617Z,26.40
2022-11-03T00:56:16.645Z,28.10
2022-11-03T00:58:44.070Z,26.70
2022-11-03T01:01:16.996Z,26.80
2022-11-03T01:04:05.837Z,24.70
2022-11-03T01:06:50.350Z,22.30
2022-11-03T01:09:22.991Z,24.60
2022-11-03T01:12:02.542Z,23.30
2022-11-03T01:14:39.472Z,20.90
2022-11-03T01:17:08.120Z,21.70
2022-11-03T01:19:35.002Z,24.00
2022-11-03T01:22:02.656Z,19.80
2022-11-03T01:24:31.864Z,23.60
2022-11-03T01:26:58.399Z,19.40
2022-11-03T01:29:24.797Z,19.90
2022-11-03T01:34:20.159Z,24.70
2022-11-03T01:36:47.823Z,25.10
2022-11-03T01:39:16.436Z,23.10
2022-11-03T01:41:45.535Z,23.10
2022-11-03T01:44:11.935Z,21.70
2022-11-03T01:49:28.075Z,21.70
2022-11-03T01:52:01.392Z,27.00
2022-11-03T01:54:30.383Z,32.60
2022-11-03T01:56:59.332Z,37.20
2022-11-03T01:59:27.270Z,32.00
2022-11-03T02:01:54.251Z,25.40
2022-11-03T02:04:34.250Z,30.10
2022-11-03T02:07:16.528Z,24.20
2022-11-03T02:09:43.038Z,26.80
2022-11-03T02:12:10.224Z,24.10
2022-11-03T02:14:42.438Z,22.40
2022-11-03T02:17:11.965Z,22.70
2022-11-03T02:19:47.013Z,19.90
2022-11-03T02:22:32.592Z,23.60
2022-11-03T02:25:27.311Z,20.30
2022-11-03T02:27:53.817Z,22.70
2022-11-03T02:30:20.567Z,21.60
2022-11-03T02:33:13.018Z,17.30
2022-11-03T02:35:48.242Z,18.70
2022-11-03T02:38:18.469Z,16.90
2022-11-03T02:40:48.180Z,17.40
2022-11-03T02:43:16.864Z,19.00
2022-11-03T02:45:46.578Z,29.10
2022-11-03T02:48:15.465Z,24.70
2022-11-03T02:50:41.881Z,26.10
2022-11-03T02:55:48.331Z,21.80
2022-11-03T02:58:41.168Z,19.60
2022-11-03T03:01:50.277Z,20.70
2022-11-03T03:04:30.896Z,18.40
2022-11-03T03:07:02.336Z,22.10
2022-11-03T03:09:34.690Z,20.30
2022-11-03T03:12:03.689Z,20.80
2022-11-03T03:14:37.467Z,19.60
2022-11-03T03:17:10.243Z,20.80
2022-11-03T03:19:45.496Z,17.90
2022-11-03T03:22:38.004Z,15.40
2022-11-03T03:25:07.382Z,16.80
2022-11-03T03:27:36.422Z,16.80
2022-11-03T03:30:07.208Z,16.20
2022-11-03T03:32:39.739Z,16.80
2022-11-03T03:35:10.544Z,18.40
2022-11-03T03:37:40.205Z,17.90
2022-11-03T03:40:10.308Z,21.20
2022-11-03T03:42:39.548Z,19.40
2022-11-03T03:45:08.189Z,18.90
2022-11-03T03:47:35.444Z,14.30
2022-11-03T03:50:02.536Z,17.10
2022-11-03T03:52:29.889Z,14.70
2022-11-03T03:54:56.393Z,18.40
2022-11-03T03:57:24.661Z,17.70
2022-11-03T03:59:51.179Z,13.80
2022-11-03T04:02:17.793Z,13.30
2022-11-03T04:04:44.360Z,13.50
2022-11-03T04:07:29.635Z,12.80
2022-11-03T04:09:56.120Z,15.00
2022-11-03T04:12:41.345Z,13.10
2022-11-03T04:15:32.009Z,12.50
2022-11-03T04:18:16.960Z,13.20
2022-11-03T04:21:01.939Z,16.80
2022-11-03T04:23:28.634Z,17.90
2022-11-03T04:25:56.411Z,13.50
2022-11-03T04:28:25.188Z,14.50
2022-11-03T04:30:54.656Z,14.00
2022-11-03T04:33:24.762Z,14.40
2022-11-03T04:35:54.947Z,19.80
2022-11-03T04:38:23.694Z,21.10
2022-11-03T04:40:56.201Z,16.20
2022-11-03T04:43:30.271Z,18.70
2022-11-03T04:45:56.671Z,17.50
2022-11-03T04:48:24.955Z,17.20
2022-11-03T04:50:54.466Z,19.70
2022-11-03T04:53:22.299Z,17.60
2022-11-03T04:55:53.068Z,15.10
2022-11-03T04:58:26.696Z,17.30
2022-11-03T05:00:56.837Z,18.60
2022-11-03T05:03:26.622Z,15.70
2022-11-03T05:05:53.160Z,13.40
2022-11-03T05:08:21.173Z,14.70
2022-11-03T05:10:48.997Z,14.60
2022-11-03T05:13:26.559Z,12.40
2022-11-03T05:15:57.527Z,17.10
2022-11-03T05:18:30.878Z,16.50
2022-11-03T05:21:03.264Z,15.30
2022-11-03T05:23:36.393Z,14.80
2022-11-03T05:26:04.528Z,15.90
2022-11-03T05:28:53.466Z,21.10
2022-11-03T05:31:29.377Z,20.00
2022-11-03T05:33:58.423Z,19.20
2022-11-03T05:36:29.184Z,20.90
2022-11-03T05:39:01.135Z,18.70
2022-11-03T05:41:30.332Z,17.60
2022-11-03T05:44:25.492Z,18.20
2022-11-03T05:46:52.477Z,21.20
2022-11-03T05:49:18.931Z,18.00
2022-11-03T05:51:46.315Z,16.50
2022-11-03T05:54:23.283Z,13.20
2022-11-03T05:56:50.024Z,15.00
2022-11-03T05:59:22.439Z,13.60
2022-11-03T06:01:49.580Z,26.50
2022-11-03T06:04:32.601Z,20.50
2022-11-03T06:07:34.883Z,16.40
2022-11-03T06:10:01.427Z,16.50
2022-11-03T06:12:29.878Z,13.80
2022-11-03T06:14:56.368Z,18.80
2022-11-03T06:17:27.007Z,89.10
2022-11-03T06:19:56.936Z,69.20
2022-11-03T06:22:33.916Z,54.30
2022-11-03T06:25:32.531Z,64.20
2022-11-03T06:28:02.559Z,30.80
2022-11-03T06:30:32.255Z,28.00
2022-11-03T06:33:03.905Z,18.90
2022-11-03T06:35:30.717Z,19.70
2022-11-03T06:37:57.419Z,23.00
2022-11-03T06:40:41.724Z,29.70
2022-11-03T06:43:39.171Z,18.40
2022-11-03T06:46:15.380Z,14.20
2022-11-03T06:48:41.893Z,20.40
2022-11-03T06:51:23.894Z,20.20
2022-11-03T06:53:52.691Z,12.70
2022-11-03T06:56:24.087Z,19.00
2022-11-03T06:58:53.803Z,15.90
2022-11-03T07:01:30.604Z,17.00
2022-11-03T07:04:00.965Z,17.80
2022-11-03T07:06:52.810Z,15.10
2022-11-03T07:09:23.299Z,14.20
2022-11-03T07:11:57.044Z,19.50
2022-11-03T07:14:27.946Z,15.70
2022-11-03T07:17:00.386Z,22.60
2022-11-03T07:19:34.183Z,26.90
2022-11-03T07:22:03.848Z,16.40
2022-11-03T07:24:38.629Z,14.80
2022-11-03T07:27:26.315Z,13.30
2022-11-03T07:29:57.740Z,24.80
2022-11-03T07:32:28.897Z,19.40
2022-11-03T07:35:04.659Z,18.60
2022-11-03T07:37:31.396Z,19.60
2022-11-03T07:39:57.991Z,19.30
2022-11-03T07:42:26.780Z,16.00
2022-11-03T07:44:55.667Z,14.60
2022-11-03T07:47:26.822Z,21.00
2022-11-03T07:49:57.137Z,13.10
2022-11-03T07:52:25.473Z,15.10
2022-11-03T07:54:56.321Z,15.00
2022-11-03T07:57:27.599Z,12.70
2022-11-03T08:00:03.851Z,13.40
2022-11-03T08:02:50.756Z,14.60
2022-11-03T08:05:17.421Z,13.90
2022-11-03T08:07:43.939Z,18.30
2022-11-03T08:10:10.694Z,18.60
2022-11-03T08:12:37.225Z,15.90
2022-11-03T08:15:04.000Z,18.70
2022-11-03T08:17:30.508Z,18.90
2022-11-03T08:19:56.923Z,17.50
2022-11-03T08:22:25.424Z,17.90
2022-11-03T08:24:52.607Z,17.70
2022-11-03T08:27:19.173Z,19.50
2022-11-03T08:29:45.583Z,15.60
2022-11-03T08:32:12.012Z,13.70
2022-11-03T08:34:38.459Z,17.70
2022-11-03T08:37:04.942Z,17.70
2022-11-03T08:39:31.359Z,14.70
2022-11-03T08:41:57.756Z,16.30
2022-11-03T08:44:24.257Z,14.60
2022-11-03T08:46:50.643Z,17.00
2022-11-03T08:49:17.111Z,18.60
2022-11-03T08:51:44.845Z,15.60
2022-11-03T08:54:11.525Z,18.00
2022-11-03T08:56:37.979Z,16.80
2022-11-03T08:59:04.364Z,15.40
2022-11-03T09:01:31.530Z,16.30
2022-11-03T09:03:58.171Z,15.70
2022-11-03T09:06:24.777Z,14.90
2022-11-03T09:11:37.598Z,18.90
2022-11-03T09:14:04.091Z,15.40
2022-11-03T09:16:30.620Z,21.20
2022-11-03T09:18:57.016Z,18.00
2022-11-03T09:21:23.479Z,18.80
2022-11-03T09:23:50.398Z,19.40
2022-11-03T09:26:16.884Z,19.00
2022-11-03T09:28:43.436Z,18.60
2022-11-03T09:31:09.897Z,19.40
2022-11-03T09:33:36.546Z,20.70
2022-11-03T09:36:03.007Z,22.00
2022-11-03T09:38:29.446Z,19.60
2022-11-03T09:40:55.977Z,19.10
2022-11-03T09:43:22.487Z,23.50
2022-11-03T09:45:48.947Z,17.40
2022-11-03T09:48:15.489Z,23.80
2022-11-03T09:50:42.375Z,21.20
2022-11-03T09:53:11.539Z,22.60
2022-11-03T09:55:39.041Z,18.90
2022-11-03T09:58:13.544Z,24.10
2022-11-03T10:00:40.498Z,42.40
2022-11-03T10:03:10.988Z,28.50
2022-11-03T10:05:38.753Z,23.70
2022-11-03T10:08:11.338Z,16.10
2022-11-03T10:10:39.812Z,18.20
2022-11-03T10:13:12.898Z,15.90
2022-11-03T10:15:41.589Z,19.30
2022-11-03T10:18:09.621Z,18.90
2022-11-03T10:20:36.082Z,15.00
2022-11-03T10:23:02.481Z,21.50
2022-11-03T10:25:36.439Z,17.70
2022-11-03T10:28:15.550Z,18.10
2022-11-03T10:31:14.971Z,17.30
2022-11-03T10:33:52.399Z,14.00
2022-11-03T10:36:19.547Z,15.10
2022-11-03T10:38:49.762Z,14.80
2022-11-03T10:41:16.276Z,13.20
2022-11-03T10:43:45.229Z,13.60
2022-11-03T10:46:36.936Z,12.80
2022-11-03T10:49:11.933Z,16.30
2022-11-03T10:51:38.878Z,11.80
2022-11-03T10:54:10.328Z,12.20
2022-11-03T10:56:36.998Z,14.70
2022-11-03T10:59:04.269Z,16.40
2022-11-03T11:01:31.519Z,14.70
2022-11-03T11:03:58.408Z,15.50
2022-11-03T11:06:30.164Z,14.90
2022-11-03T11:09:01.980Z,18.10
2022-11-03T11:11:28.830Z,18.60
2022-11-03T11:14:34.255Z,15.80
2022-11-03T11:17:02.108Z,17.30
2022-11-03T11:19:30.105Z,11.50
2022-11-03T11:21:58.272Z,13.10
2022-11-03T11:24:43.223Z,10.10
2022-11-03T11:27:31.362Z,14.90
2022-11-03T11:29:59.136Z,14.80
2022-11-03T11:32:40.984Z,13.90
2022-11-03T11:35:24.596Z,10.60
2022-11-03T11:37:51.852Z,10.10
2022-11-03T11:40:24.585Z,8.40
2022-11-03T11:43:06.543Z,7.90
2022-11-03T11:46:30.834Z,10.70
2022-11-03T11:49:03.024Z,15.50
2022-11-03T11:51:34.875Z,9.00
2022-11-03T11:54:17.631Z,10.10
2022-11-03T11:56:47.903Z,7.50
2022-11-03T11:59:26.008Z,8.00
2022-11-03T12:01:56.308Z,9.60
2022-11-03T12:04:30.450Z,6.50
2022-11-03T12:06:57.083Z,9.70
2022-11-03T12:09:27.113Z,7.30
2022-11-03T12:12:00.853Z,10.30
2022-11-03T12:14:34.912Z,7.40
2022-11-03T12:17:13.941Z,6.70
2022-11-03T12:19:43.800Z,5.50
2022-11-03T12:22:31.225Z,9.00
2022-11-03T12:25:07.977Z,6.00
2022-11-03T12:27:34.554Z,5.00
2022-11-03T12:30:04.566Z,6.40
2022-11-03T12:32:33.615Z,5.20
2022-11-03T12:35:03.249Z,6.10
2022-11-03T12:37:29.760Z,6.80
2022-11-03T12:39:56.202Z,9.00
2022-11-03T12:42:24.298Z,5.60
2022-11-03T12:44:51.069Z,4.80
2022-11-03T12:47:17.586Z,5.90
2022-11-03T12:49:44.053Z,7.50
2022-11-03T12:52:10.758Z,6.10
2022-11-03T12:54:37.552Z,6.90
2022-11-03T12:57:04.014Z,6.70
2022-11-03T12:59:30.493Z,7.90
2022-11-03T13:01:57.083Z,10.90
2022-11-03T13:04:24.113Z,8.50
2022-11-03T13:06:50.566Z,8.50
2022-11-03T13:09:16.975Z,9.30
2022-11-03T13:12:02.096Z,10.30
2022-11-03T13:14:28.484Z,9.70
2022-11-03T13:19:21.335Z,8.90
2022-11-03T13:21:47.842Z,10.60
2022-11-03T13:24:14.290Z,5.90
2022-11-03T13:26:40.714Z,11.60
2022-11-03T13:29:07.182Z,11.40
2022-11-03T13:31:35.044Z,11.20
2022-11-03T13:34:01.469Z,8.40
2022-11-03T13:36:27.943Z,9.50
2022-11-03T13:38:54.370Z,10.70
2022-11-03T13:41:20.856Z,7.70
2022-11-03T13:43:47.310Z,9.50
2022-11-03T13:46:13.727Z,12.60
2022-11-03T13:51:26.652Z,10.50
2022-11-03T13:59:27.459Z,9.90
2022-11-03T14:04:41.970Z,8.50
2022-11-03T14:07:09.240Z,9.20
2022-11-03T14:12:25.823Z,12.40
2022-11-03T14:14:52.385Z,8.10
2022-11-03T14:17:18.937Z,8.00
2022-11-03T14:19:51.778Z,12.10
2022-11-03T14:22:20.449Z,8.20
2022-11-03T14:24:47.341Z,14.20
2022-11-03T14:27:15.327Z,12.00
2022-11-03T14:29:43.255Z,14.40
2022-11-03T14:32:12.802Z,10.10
2022-11-03T14:34:39.418Z,10.20
2022-11-03T14:37:08.133Z,12.70
2022-11-03T14:39:38.046Z,9.10
2022-11-03T14:42:09.047Z,15.20
2022-11-03T14:44:37.811Z,11.80
2022-11-03T14:47:06.760Z,13.60
2022-11-03T14:49:34.582Z,12.10
2022-11-03T14:52:02.898Z,11.50
2022-11-03T14:54:30.309Z,13.40
2022-11-03T14:56:57.176Z,12.20
2022-11-03T14:59:24.126Z,12.70
2022-11-03T15:01:52.152Z,14.70
2022-11-03T15:04:19.707Z,16.60
2022-11-03T15:06:46.644Z,17.00
2022-11-03T15:09:13.963Z,14.80
2022-11-03T15:11:42.061Z,14.00
2022-11-03T15:14:08.844Z,20.30
2022-11-03T15:16:38.418Z,17.20
2022-11-03T15:19:06.339Z,21.50
2022-11-03T15:21:33.190Z,24.10
2022-11-03T15:26:46.061Z,19.50
2022-11-03T15:29:12.539Z,19.10
2022-11-03T15:31:39.383Z,15.00
2022-11-03T15:34:08.692Z,15.40
2022-11-03T15:36:35.836Z,14.50
2022-11-03T15:39:02.734Z,14.90
2022-11-03T15:41:29.171Z,12.50
2022-11-03T15:43:55.705Z,14.30
2022-11-03T15:46:22.213Z,15.10
2022-11-03T15:48:48.653Z,13.60
2022-11-03T15:51:15.409Z,14.00
2022-11-03T15:53:43.132Z,44.30
2022-11-03T15:56:09.964Z,15.30
2022-11-03T15:58:37.073Z,18.70
2022-11-03T16:01:04.539Z,14.40
2022-11-03T16:03:31.487Z,15.70
2022-11-03T16:05:59.115Z,19.40
2022-11-03T16:08:26.244Z,15.00
2022-11-03T16:10:57.594Z,15.10
2022-11-03T16:13:25.249Z,17.00
2022-11-03T16:15:53.833Z,17.70
2022-11-03T16:18:20.255Z,16.10
2022-11-03T16:20:46.834Z,16.30
2022-11-03T16:23:13.370Z,16.30
2022-11-03T16:25:40.135Z,23.40
2022-11-03T16:28:07.075Z,24.00
2022-11-03T16:30:37.813Z,20.60
2022-11-03T16:33:04.580Z,17.30
2022-11-03T16:35:31.035Z,20.30
2022-11-03T16:37:57.455Z,15.80
2022-11-03T16:40:23.939Z,19.20
2022-11-03T16:42:50.461Z,17.50
2022-11-03T16:45:18.163Z,17.30
2022-11-03T16:47:46.023Z,18.60
2022-11-03T16:50:13.001Z,20.50
2022-11-03T16:52:39.512Z,20.10
2022-11-03T16:55:06.764Z,22.60
2022-11-03T16:57:33.403Z,17.60
2022-11-03T16:59:59.934Z,19.70
2022-11-03T17:02:27.423Z,18.60
2022-11-03T17:04:54.439Z,19.50
2022-11-03T17:07:20.976Z,19.70
2022-11-03T17:09:47.512Z,21.60
2022-11-03T17:12:14.050Z,16.20
2022-11-03T17:14:40.544Z,24.20
2022-11-03T17:17:07.160Z,21.60
2022-11-03T17:19:33.623Z,29.10
2022-11-03T17:22:00.194Z,32.50
2022-11-03T17:24:26.879Z,22.00
2022-11-03T17:27:09.863Z,21.80
2022-11-03T17:29:40.106Z,19.70
2022-11-03T17:32:28.316Z,26.90
2022-11-03T17:34:56.785Z,34.80
2022-11-03T17:37:24.447Z,37.90
2022-11-03T17:39:51.315Z,26.10
2022-11-03T17:42:21.002Z,20.70
2022-11-03T17:44:49.660Z,21.40
2022-11-03T17:47:17.480Z,20.60
2022-11-03T17:49:45.188Z,20.00
2022-11-03T17:52:14.636Z,22.80
2022-11-03T17:54:41.852Z,21.20
2022-11-03T17:57:15.559Z,23.20
2022-11-03T17:59:43.426Z,18.90
2022-11-03T18:02:18.793Z,18.60
2022-11-03T18:04:46.088Z,20.50
2022-11-03T18:07:20.762Z,21.90
2022-11-03T18:09:47.531Z,23.80
2022-11-03T18:12:35.284Z,27.90
2022-11-03T18:15:04.607Z,25.90
2022-11-03T18:17:31.424Z,41.10
2022-11-03T18:19:58.057Z,45.60
2022-11-03T18:22:24.532Z,26.10
2022-11-03T18:24:51.687Z,25.90
2022-11-03T18:27:22.663Z,26.10
2022-11-03T18:29:51.632Z,35.90
2022-11-03T18:34:45.301Z,24.90
2022-11-03T18:37:12.128Z,21.80
2022-11-03T18:39:39.376Z,23.90
2022-11-03T18:42:13.970Z,29.40
2022-11-03T18:44:43.840Z,28.00
2022-11-03T18:47:10.617Z,30.20
2022-11-03T18:49:37.742Z,22.80
2022-11-03T18:52:12.356Z,30.70
2022-11-03T18:54:42.759Z,23.00
2022-11-03T18:57:11.152Z,20.90
2022-11-03T18:59:42.096Z,23.10
2022-11-03T19:02:24.726Z,22.20
2022-11-03T19:04:51.282Z,24.20
2022-11-03T19:07:29.651Z,27.70
2022-11-03T19:09:56.389Z,32.80
2022-11-03T19:12:23.127Z,31.40
2022-11-03T19:14:49.770Z,30.40
2022-11-03T19:17:23.450Z,28.20
2022-11-03T19:19:51.961Z,25.80
2022-11-03T19:22:20.933Z,29.40
2022-11-03T19:24:47.514Z,36.20
2022-11-03T19:27:26.870Z,25.10
2022-11-03T19:29:55.317Z,29.90
2022-11-03T19:32:28.803Z,28.80
2022-11-03T19:35:02.464Z,22.30
2022-11-03T19:37:35.097Z,24.20
2022-11-03T19:40:08.007Z,27.10
2022-11-03T19:42:37.511Z,26.40
2022-11-03T19:45:07.605Z,26.00
2022-11-03T19:47:47.906Z,23.40
2022-11-03T19:50:23.528Z,24.70
2022-11-03T19:52:50.162Z,35.20
2022-11-03T19:55:18.835Z,26.50
2022-11-03T19:57:45.359Z,35.00
2022-11-03T20:00:17.188Z,25.60
2022-11-03T20:02:44.198Z,28.40
2022-11-03T20:05:14.557Z,28.20
2022-11-03T20:07:42.877Z,32.80
2022-11-03T20:10:16.299Z,34.70
2022-11-03T20:12:44.210Z,33.90
2022-11-03T20:15:19.752Z,32.30
2022-11-03T20:17:48.047Z,25.90
2022-11-03T20:20:16.816Z,32.30
2022-11-03T20:22:53.995Z,28.90
2022-11-03T20:25:27.761Z,25.00
2022-11-03T20:27:56.266Z,28.80
2022-11-03T20:30:25.415Z,26.50
2022-11-03T20:32:53.108Z,26.90
2022-11-03T20:35:26.593Z,31.10
2022-11-03T20:37:58.355Z,29.20
2022-11-03T20:40:26.671Z,25.40
2022-11-03T20:42:56.659Z,26.80
2022-11-03T20:45:24.053Z,28.90
2022-11-03T20:47:51.061Z,25.60
2022-11-03T20:50:19.800Z,31.20
2022-11-03T20:52:47.713Z,28.50
2022-11-03T20:55:14.428Z,27.50
2022-11-03T20:57:41.085Z,32.40
2022-11-03T21:00:13.814Z,28.20
2022-11-03T21:02:40.679Z,26.30
2022-11-03T21:05:14.636Z,29.60
2022-11-03T21:07:41.325Z,28.70
2022-11-03T21:10:08.965Z,24.20
2022-11-03T21:12:36.033Z,24.80
2022-11-03T21:15:25.504Z,27.30
2022-11-03T21:18:14.675Z,27.60
2022-11-03T21:20:41.127Z,28.30
2022-11-03T21:25:40.437Z,32.70
2022-11-03T21:28:07.082Z,29.30
2022-11-03T21:30:33.806Z,25.20
2022-11-03T21:35:26.829Z,28.10
2022-11-03T21:37:53.287Z,32.30
2022-11-03T21:40:19.799Z,26.50
2022-11-03T21:43:04.801Z,30.70
2022-11-03T21:45:32.017Z,28.80
2022-11-03T21:48:17.775Z,27.40
2022-11-03T21:50:44.720Z,26.40
2022-11-03T21:53:12.053Z,24.90
2022-11-03T21:55:39.130Z,25.30
2022-11-03T21:58:06.139Z,29.40
2022-11-03T22:00:33.609Z,27.10
2022-11-03T22:03:00.678Z,31.20
2022-11-03T22:05:27.322Z,23.90
2022-11-03T22:07:54.173Z,25.50
2022-11-03T22:10:20.899Z,26.60
2022-11-03T22:12:47.521Z,26.40
2022-11-03T22:15:32.925Z,23.10
2022-11-03T22:18:00.744Z,23.90
2022-11-03T22:20:46.041Z,29.60
2022-11-03T22:23:34.137Z,30.10
2022-11-03T22:26:27.615Z,29.00
2022-11-03T22:29:12.825Z,25.60
2022-11-03T22:31:42.436Z,25.50
2022-11-03T22:34:27.829Z,34.40
2022-11-03T22:36:54.592Z,33.10
2022-11-03T22:39:39.608Z,28.40
2022-11-03T22:42:24.565Z,24.90
2022-11-03T22:45:09.574Z,28.00
2022-11-03T22:47:36.033Z,20.60
2022-11-03T22:50:02.583Z,25.30
2022-11-03T22:52:28.953Z,26.70
2022-11-03T22:54:55.379Z,27.80
2022-11-03T22:57:21.825Z,24.20
2022-11-03T22:59:48.236Z,29.50
2022-11-03T23:02:14.797Z,26.60
2022-11-03T23:04:41.369Z,28.00
2022-11-03T23:07:07.825Z,26.20
2022-11-03T23:09:34.771Z,29.50
2022-11-03T23:12:01.176Z,24.50
2022-11-03T23:14:47.537Z,25.70
2022-11-03T23:17:14.015Z,28.30
2022-11-03T23:22:25.497Z,26.40
2022-11-03T23:25:01.032Z,30.00
2022-11-03T23:27:27.976Z,28.50
2022-11-03T23:29:54.462Z,25.70
2022-11-03T23:32:20.994Z,25.70
2022-11-03T23:34:47.526Z,23.80
2022-11-03T23:37:13.928Z,25.60
2022-11-03T23:39:40.347Z,27.70
2022-11-03T23:42:06.927Z,31.40
2022-11-03T23:44:53.317Z,28.30
2022-11-03T23:47:38.559Z,28.80
2022-11-03T23:50:05.420Z,19.10
2022-11-03T23:52:31.822Z,26.20
2022-11-03T23:54:58.247Z,28.70
2022-11-03T23:57:43.085Z,25.10
